createdAt,value
2023-09-24T00:00:28.485Z,99164.72
2023-09-24T00:03:32.524Z,99170.56
2023-09-24T00:06:35.131Z,99180.53
2023-09-24T00:09:37.971Z,99171.44
2023-09-24T00:12:40.321Z,99174.69
2023-09-24T00:15:42.582Z,99177.37
2023-09-24T00:18:44.840Z,99178.59
2023-09-24T00:21:50.260Z,99170.06
2023-09-24T00:24:52.558Z,99176.56
2023-09-24T00:27:55.887Z,99184.59
2023-09-24T00:30:59.527Z,99187.53
2023-09-24T00:34:01.832Z,99188.56
2023-09-24T00:37:04.103Z,99198.81
2023-09-24T00:40:10.790Z,99213.59
2023-09-24T00:43:45.778Z,99204.31
2023-09-24T00:46:48.223Z,99209.91
2023-09-24T00:49:51.247Z,99217.56
2023-09-24T00:52:54.851Z,99218.38
2023-09-24T00:55:58.001Z,99220.66
2023-09-24T00:59:00.384Z,99216.94
2023-09-24T01:02:03.701Z,99221.78
2023-09-24T01:05:06.596Z,99227.25
2023-09-24T01:08:08.941Z,99223.75
2023-09-24T01:11:11.291Z,99229.56
2023-09-24T01:14:14.508Z,99231.50
2023-09-24T01:17:18.406Z,99221.59
2023-09-24T01:20:23.043Z,99208.50
2023-09-24T01:23:25.401Z,99208.34
2023-09-24T01:26:28.630Z,99215.37
2023-09-24T01:29:31.149Z,99217.31
2023-09-24T01:32:33.629Z,99225.69
2023-09-24T01:35:36.531Z,99217.53
2023-09-24T01:38:43.036Z,99206.97
2023-09-24T01:41:46.608Z,99217.59
2023-09-24T01:44:49.178Z,99225.38
2023-09-24T01:47:52.045Z,99220.03
2023-09-24T01:50:54.483Z,99203.38
2023-09-24T01:53:59.199Z,99202.81
2023-09-24T01:57:01.531Z,99207.31
2023-09-24T02:00:12.669Z,99205.09
2023-09-24T02:03:15.046Z,99213.12
2023-09-24T02:06:17.448Z,99230.34
2023-09-24T02:09:19.643Z,99222.22
2023-09-24T02:12:23.200Z,99220.28
2023-09-24T02:15:26.329Z,99206.81
2023-09-24T02:18:33.839Z,99207.50
2023-09-24T02:21:37.569Z,99210.41
2023-09-24T02:24:41.456Z,99202.81
2023-09-24T02:27:43.811Z,99203.53
2023-09-24T02:30:47.291Z,99207.72
2023-09-24T02:33:49.860Z,99204.50
2023-09-24T02:36:54.210Z,99206.81
2023-09-24T02:39:56.492Z,99214.72
2023-09-24T02:43:03.093Z,99201.00
2023-09-24T02:46:06.840Z,99200.06
2023-09-24T02:49:09.622Z,99194.94
2023-09-24T02:52:12.873Z,99190.22
2023-09-24T02:55:16.593Z,99193.22
2023-09-24T02:58:19.267Z,99197.28
2023-09-24T03:01:21.988Z,99201.00
2023-09-24T03:04:24.448Z,99188.69
2023-09-24T03:07:26.775Z,99195.53
2023-09-24T03:10:31.272Z,99181.81
2023-09-24T03:13:33.508Z,99189.59
2023-09-24T03:16:35.912Z,99189.25
2023-09-24T03:19:38.142Z,99196.09
2023-09-24T03:22:40.403Z,99186.69
2023-09-24T03:25:42.744Z,99171.78
2023-09-24T03:28:45.111Z,99182.50
2023-09-24T03:31:47.516Z,99178.97
2023-09-24T03:34:49.840Z,99191.22
2023-09-24T03:37:52.798Z,99192.25
2023-09-24T03:40:55.235Z,99201.91
2023-09-24T03:43:57.560Z,99202.81
2023-09-24T03:46:59.801Z,99213.56
2023-09-24T03:50:03.196Z,99216.16
2023-09-24T03:53:05.514Z,99215.47
2023-09-24T03:56:08.701Z,99220.88
2023-09-24T03:59:10.910Z,99222.25
2023-09-24T04:02:13.193Z,99216.31
2023-09-24T04:05:19.252Z,99217.03
2023-09-24T04:08:21.923Z,99223.41
2023-09-24T04:11:24.301Z,99232.03
2023-09-24T04:14:27.160Z,99229.72
2023-09-24T04:17:29.908Z,99233.44
2023-09-24T04:20:34.628Z,99227.28
2023-09-24T04:23:37.196Z,99226.22
2023-09-24T04:26:39.513Z,99229.50
2023-09-24T04:29:41.785Z,99234.28
2023-09-24T04:32:53.128Z,99226.00
2023-09-24T04:35:56.046Z,99223.56
2023-09-24T04:38:58.355Z,99226.13
2023-09-24T04:42:00.743Z,99232.16
2023-09-24T04:45:03.347Z,99239.50
2023-09-24T04:48:06.408Z,99244.59
2023-09-24T04:51:08.895Z,99250.66
2023-09-24T04:54:11.136Z,99251.59
2023-09-24T04:57:13.345Z,99265.78
2023-09-24T05:00:17.346Z,99259.03
2023-09-24T05:03:20.307Z,99260.44
2023-09-24T05:06:23.014Z,99262.88
2023-09-24T05:09:27.439Z,99270.44
2023-09-24T05:12:30.865Z,99271.03
2023-09-24T05:15:33.178Z,99271.13
2023-09-24T05:18:35.498Z,99270.44
2023-09-24T05:21:37.796Z,99274.75
2023-09-24T05:24:40.055Z,99257.53
2023-09-24T05:27:42.326Z,99259.72
2023-09-24T05:30:44.601Z,99255.28
2023-09-24T05:33:48.501Z,99262.75
2023-09-24T05:36:51.328Z,99265.91
2023-09-24T05:39:53.696Z,99266.00
2023-09-24T05:42:55.887Z,99269.25
2023-09-24T05:45:58.246Z,99271.66
2023-09-24T05:49:01.513Z,99280.50
2023-09-24T05:52:04.742Z,99285.47
2023-09-24T05:55:08.007Z,99295.28
2023-09-24T05:58:10.533Z,99295.19
2023-09-24T06:01:18.979Z,99287.38
2023-09-24T06:04:21.624Z,99282.50
2023-09-24T06:07:26.134Z,99288.44
2023-09-24T06:10:28.462Z,99285.63
2023-09-24T06:13:30.750Z,99298.78
2023-09-24T06:16:33.101Z,99298.34
2023-09-24T06:19:35.507Z,99297.75
2023-09-24T06:22:37.752Z,99304.28
2023-09-24T06:25:39.946Z,99309.72
2023-09-24T06:28:47.690Z,99311.00
2023-09-24T06:31:55.299Z,99323.00
2023-09-24T06:34:57.561Z,99324.50
2023-09-24T06:38:00.310Z,99335.47
2023-09-24T06:41:03.979Z,99335.47
2023-09-24T06:44:06.580Z,99347.78
2023-09-24T06:47:08.840Z,99348.25
2023-09-24T06:50:11.786Z,99354.53
2023-09-24T06:53:14.036Z,99355.59
2023-09-24T06:56:16.240Z,99360.84
2023-09-24T06:59:18.458Z,99358.97
2023-09-24T07:02:20.715Z,99370.41
2023-09-24T07:05:23.077Z,99366.66
2023-09-24T07:08:25.913Z,99373.19
2023-09-24T07:11:32.397Z,99380.06
2023-09-24T07:14:34.763Z,99379.25
2023-09-24T07:17:37.153Z,99372.16
2023-09-24T07:20:40.980Z,99375.97
2023-09-24T07:23:43.282Z,99380.41
2023-09-24T07:26:45.705Z,99375.72
2023-09-24T07:29:48.239Z,99376.09
2023-09-24T07:32:51.450Z,99386.19
2023-09-24T07:35:53.976Z,99386.44
2023-09-24T07:38:56.335Z,99390.03
2023-09-24T07:41:58.762Z,99391.09
2023-09-24T07:45:01.030Z,99390.97
2023-09-24T07:48:11.148Z,99395.03
2023-09-24T07:51:13.789Z,99397.38
2023-09-24T07:54:16.927Z,99401.44
2023-09-24T07:57:19.452Z,99405.97
2023-09-24T08:00:21.663Z,99413.19
2023-09-24T08:03:24.309Z,99414.81
2023-09-24T08:06:29.771Z,99417.25
2023-09-24T08:09:32.185Z,99419.94
2023-09-24T08:12:35.815Z,99410.00
2023-09-24T08:15:38.205Z,99413.25
2023-09-24T08:18:41.401Z,99408.00
2023-09-24T08:21:43.674Z,99411.84
2023-09-24T08:24:45.897Z,99414.16
2023-09-24T08:27:49.179Z,99418.31
2023-09-24T08:30:51.480Z,99412.97
2023-09-24T08:33:54.148Z,99408.44
2023-09-24T08:36:56.520Z,99410.09
2023-09-24T08:39:58.724Z,99416.63
2023-09-24T08:43:06.137Z,99430.88
2023-09-24T08:46:09.907Z,99426.09
2023-09-24T08:49:13.795Z,99431.28
2023-09-24T08:52:18.646Z,99423.72
2023-09-24T08:55:20.874Z,99429.91
2023-09-24T08:58:24.258Z,99436.87
2023-09-24T09:01:26.495Z,99445.28
2023-09-24T09:04:28.794Z,99441.19
2023-09-24T09:07:31.722Z,99446.47
2023-09-24T09:10:38.259Z,99435.53
2023-09-24T09:13:44.309Z,99451.22
2023-09-24T09:16:58.216Z,99454.59
2023-09-24T09:20:01.305Z,99449.63
2023-09-24T09:23:03.935Z,99459.41
2023-09-24T09:26:06.180Z,99444.84
2023-09-24T09:29:21.483Z,99449.25
2023-09-24T09:32:37.123Z,99442.53
2023-09-24T09:35:39.493Z,99438.50
2023-09-24T09:38:41.996Z,99438.72
2023-09-24T09:41:45.060Z,99449.31
2023-09-24T09:44:50.622Z,99454.56
2023-09-24T09:48:04.812Z,99460.94
2023-09-24T09:51:08.810Z,99464.31
2023-09-24T09:54:12.455Z,99464.81
2023-09-24T09:57:14.762Z,99480.06
2023-09-24T10:00:17.991Z,99470.75
2023-09-24T10:03:21.583Z,99484.59
2023-09-24T10:06:24.422Z,99490.19
2023-09-24T10:09:31.101Z,99489.94
2023-09-24T10:12:36.051Z,99487.03
2023-09-24T10:15:38.244Z,99479.12
2023-09-24T10:18:57.026Z,99476.44
2023-09-24T10:22:32.828Z,99487.66
2023-09-24T10:25:35.874Z,99491.16
2023-09-24T10:28:49.029Z,99495.81
2023-09-24T10:32:10.622Z,99501.50
2023-09-24T10:35:12.924Z,99514.28
2023-09-24T10:38:17.255Z,99516.06
2023-09-24T10:41:19.693Z,99515.84
2023-09-24T10:44:25.647Z,99508.84
2023-09-24T10:47:30.335Z,99525.16
2023-09-24T10:50:32.758Z,99529.81
2023-09-24T10:53:35.007Z,99523.75
2023-09-24T10:56:37.304Z,99518.41
2023-09-24T10:59:39.599Z,99513.66
2023-09-24T11:02:44.134Z,99515.78
2023-09-24T11:05:50.434Z,99514.84
2023-09-24T11:08:53.074Z,99514.59
2023-09-24T11:11:55.383Z,99516.81
2023-09-24T11:15:14.158Z,99518.09
2023-09-24T11:18:17.888Z,99515.88
2023-09-24T11:21:20.975Z,99505.16
2023-09-24T11:24:23.873Z,99515.41
2023-09-24T11:27:26.382Z,99519.03
2023-09-24T11:30:49.136Z,99518.69
2023-09-24T11:33:56.429Z,99527.87
2023-09-24T11:36:59.276Z,99524.84
2023-09-24T11:40:01.513Z,99526.00
2023-09-24T11:43:21.531Z,99523.34
2023-09-24T11:46:29.340Z,99516.69
2023-09-24T11:49:31.615Z,99509.59
2023-09-24T11:52:34.091Z,99508.78
2023-09-24T11:55:36.664Z,99496.53
2023-09-24T11:58:39.236Z,99504.00
2023-09-24T12:01:41.662Z,99506.19
2023-09-24T12:04:44.063Z,99511.91
2023-09-24T12:07:49.372Z,99513.66
2023-09-24T12:10:52.458Z,99513.03
2023-09-24T12:13:57.598Z,99516.78
2023-09-24T12:16:59.870Z,99526.34
2023-09-24T12:20:06.165Z,99530.09
2023-09-24T12:23:09.470Z,99530.09
2023-09-24T12:26:11.722Z,99539.41
2023-09-24T12:29:14.172Z,99529.47
2023-09-24T12:32:16.408Z,99543.91
2023-09-24T12:35:18.888Z,99542.56
2023-09-24T12:38:21.161Z,99538.00
2023-09-24T12:41:23.337Z,99549.19
2023-09-24T12:44:25.895Z,99535.34
2023-09-24T12:47:34.232Z,99531.84
2023-09-24T12:50:36.927Z,99524.72
2023-09-24T12:53:42.192Z,99521.34
2023-09-24T12:56:44.719Z,99531.97
2023-09-24T12:59:49.435Z,99534.88
2023-09-24T13:02:52.917Z,99547.94
2023-09-24T13:05:55.540Z,99544.78
2023-09-24T13:08:57.834Z,99531.16
2023-09-24T13:12:00.122Z,99526.59
2023-09-24T13:15:03.548Z,99527.09
2023-09-24T13:18:06.563Z,99519.97
2023-09-24T13:21:09.141Z,99512.59
2023-09-24T13:24:11.648Z,99520.87
2023-09-24T13:27:14.058Z,99524.16
2023-09-24T13:30:16.506Z,99515.97
2023-09-24T13:33:19.144Z,99533.25
2023-09-24T13:36:22.739Z,99528.47
2023-09-24T13:39:25.389Z,99534.25
2023-09-24T13:42:27.857Z,99547.47
2023-09-24T13:45:31.171Z,99559.47
2023-09-24T13:48:34.413Z,99566.47
2023-09-24T13:51:42.668Z,99567.72
2023-09-24T13:54:44.953Z,99580.31
2023-09-24T13:57:47.390Z,99572.50
2023-09-24T14:00:53.029Z,99571.03
2023-09-24T14:03:56.975Z,99574.03
2023-09-24T14:06:59.210Z,99572.53
2023-09-24T14:10:36.850Z,99573.78
2023-09-24T14:13:39.308Z,99578.81
2023-09-24T14:16:48.787Z,99579.84
2023-09-24T14:19:54.733Z,99576.03
2023-09-24T14:22:57.216Z,99559.94
2023-09-24T14:25:59.657Z,99566.81
2023-09-24T14:29:03.304Z,99576.13
2023-09-24T14:32:05.973Z,99578.91
2023-09-24T14:35:08.712Z,99575.78
2023-09-24T14:38:11.007Z,99564.72
2023-09-24T14:41:13.242Z,99582.09
2023-09-24T14:44:16.645Z,99590.72
2023-09-24T14:47:19.153Z,99580.69
2023-09-24T14:50:21.364Z,99584.31
2023-09-24T14:53:23.756Z,99591.88
2023-09-24T14:56:27.902Z,99592.81
2023-09-24T14:59:30.194Z,99597.03
2023-09-24T15:02:32.494Z,99606.22
2023-09-24T15:05:34.756Z,99608.66
2023-09-24T15:08:37.672Z,99617.88
2023-09-24T15:11:40.914Z,99602.50
2023-09-24T15:14:43.248Z,99605.50
2023-09-24T15:17:46.746Z,99611.00
2023-09-24T15:20:50.635Z,99608.66
2023-09-24T15:23:53.215Z,99614.63
2023-09-24T15:26:55.500Z,99626.41
2023-09-24T15:29:59.390Z,99631.50
2023-09-24T15:33:02.315Z,99630.81
2023-09-24T15:36:05.833Z,99638.75
2023-09-24T15:39:08.890Z,99644.81
2023-09-24T15:42:11.292Z,99639.34
2023-09-24T15:45:13.990Z,99632.34
2023-09-24T15:48:16.680Z,99634.66
2023-09-24T15:51:20.810Z,99642.47
2023-09-24T15:54:24.106Z,99645.97
2023-09-24T15:57:26.641Z,99638.38
2023-09-24T16:00:29.329Z,99635.00
2023-09-24T16:03:33.453Z,99637.69
2023-09-24T16:06:35.879Z,99646.53
2023-09-24T16:09:38.160Z,99655.16
2023-09-24T16:12:40.658Z,99654.22
2023-09-24T16:15:43.633Z,99661.22
2023-09-24T16:18:45.914Z,99669.84
2023-09-24T16:21:51.243Z,99660.06
2023-09-24T16:24:54.940Z,99666.00
2023-09-24T16:27:57.253Z,99663.56
2023-09-24T16:31:04.255Z,99684.06
2023-09-24T16:34:06.762Z,99694.59
2023-09-24T16:37:08.994Z,99699.59
2023-09-24T16:40:12.716Z,99703.91
2023-09-24T16:43:14.930Z,99703.19
2023-09-24T16:46:17.296Z,99708.56
2023-09-24T16:49:19.595Z,99702.00
2023-09-24T16:52:25.295Z,99695.09
2023-09-24T16:55:27.526Z,99710.13
2023-09-24T16:58:30.001Z,99720.09
2023-09-24T17:01:34.414Z,99725.91
2023-09-24T17:04:37.611Z,99722.75
2023-09-24T17:07:40.440Z,99722.25
2023-09-24T17:10:52.147Z,99736.41
2023-09-24T17:13:54.616Z,99742.81
2023-09-24T17:16:57.895Z,99749.78
2023-09-24T17:20:00.667Z,99748.97
2023-09-24T17:23:03.718Z,99752.72
2023-09-24T17:26:19.471Z,99755.03
2023-09-24T17:29:25.134Z,99750.63
2023-09-24T17:32:30.177Z,99752.94
2023-09-24T17:35:34.428Z,99754.25
2023-09-24T17:38:37.045Z,99755.06
2023-09-24T17:41:42.896Z,99755.78
2023-09-24T17:44:45.556Z,99755.41
2023-09-24T17:47:49.829Z,99754.59
2023-09-24T17:50:52.238Z,99754.72
2023-09-24T17:53:54.842Z,99752.97
2023-09-24T17:56:57.316Z,99752.16
2023-09-24T17:59:59.874Z,99759.31
2023-09-24T18:03:02.533Z,99762.47
2023-09-24T18:06:05.645Z,99758.00
2023-09-24T18:09:08.276Z,99765.69
2023-09-24T18:12:10.915Z,99765.19
2023-09-24T18:15:16.210Z,99754.56
2023-09-24T18:18:23.124Z,99760.59
2023-09-24T18:21:28.540Z,99760.47
2023-09-24T18:24:34.531Z,99751.56
2023-09-24T18:27:37.320Z,99757.84
2023-09-24T18:30:39.823Z,99752.38
2023-09-24T18:33:42.964Z,99751.28
2023-09-24T18:36:45.947Z,99759.59
2023-09-24T18:39:48.917Z,99761.47
2023-09-24T18:42:51.388Z,99761.84
2023-09-24T18:45:57.292Z,99760.50
2023-09-24T18:48:59.820Z,99761.19
2023-09-24T18:52:05.064Z,99756.34
2023-09-24T18:55:07.860Z,99756.66
2023-09-24T18:58:10.255Z,99754.91
2023-09-24T19:01:13.305Z,99765.50
2023-09-24T19:04:16.062Z,99774.94
2023-09-24T19:07:19.381Z,99783.09
2023-09-24T19:10:22.249Z,99784.69
2023-09-24T19:13:30.068Z,99791.22
2023-09-24T19:16:32.998Z,99798.44
2023-09-24T19:19:38.112Z,99802.09
2023-09-24T19:22:41.812Z,99797.91
2023-09-24T19:25:45.113Z,99799.50
2023-09-24T19:28:47.469Z,99798.91
2023-09-24T19:31:52.111Z,99789.28
2023-09-24T19:34:54.795Z,99793.69
2023-09-24T19:38:00.381Z,99787.50
2023-09-24T19:41:04.174Z,99795.84
2023-09-24T19:44:06.861Z,99805.66
2023-09-24T19:47:09.717Z,99811.31
2023-09-24T19:50:12.774Z,99813.62
2023-09-24T19:53:15.121Z,99811.47
2023-09-24T19:56:17.810Z,99814.72
2023-09-24T19:59:20.312Z,99812.94
2023-09-24T20:02:22.822Z,99820.16
2023-09-24T20:05:25.067Z,99814.06
2023-09-24T20:08:32.478Z,99816.28
2023-09-24T20:11:35.668Z,99814.72
2023-09-24T20:14:38.685Z,99809.00
2023-09-24T20:17:40.925Z,99818.06
2023-09-24T20:20:46.244Z,99804.25
2023-09-24T20:23:48.513Z,99810.63
2023-09-24T20:26:52.877Z,99804.09
2023-09-24T20:29:55.375Z,99799.91
2023-09-24T20:32:57.664Z,99803.84
2023-09-24T20:36:00.944Z,99808.38
2023-09-24T20:39:07.411Z,99798.84
2023-09-24T20:42:10.216Z,99795.59
2023-09-24T20:45:15.728Z,99790.59
2023-09-24T20:48:19.476Z,99799.41
2023-09-24T20:51:21.842Z,99820.00
2023-09-24T20:54:24.262Z,99827.81
2023-09-24T20:57:26.562Z,99822.62
2023-09-24T21:00:34.603Z,99818.06
2023-09-24T21:03:37.075Z,99825.66
2023-09-24T21:06:39.375Z,99834.50
2023-09-24T21:09:41.788Z,99832.66
2023-09-24T21:12:44.101Z,99833.25
2023-09-24T21:15:46.347Z,99833.47
2023-09-24T21:18:48.861Z,99823.22
2023-09-24T21:21:51.296Z,99816.06
2023-09-24T21:24:54.614Z,99831.91
2023-09-24T21:27:59.981Z,99829.22
2023-09-24T21:31:03.730Z,99835.41
2023-09-24T21:34:09.357Z,99838.09
2023-09-24T21:37:16.619Z,99830.28
2023-09-24T21:40:18.935Z,99829.00
2023-09-24T21:43:21.898Z,99830.66
2023-09-24T21:46:24.530Z,99842.25
2023-09-24T21:49:26.861Z,99855.63
2023-09-24T21:52:29.086Z,99870.22
2023-09-24T21:55:31.353Z,99877.56
2023-09-24T21:58:33.621Z,99873.41
2023-09-24T22:01:35.896Z,99863.16
2023-09-24T22:04:38.958Z,99858.69
2023-09-24T22:07:41.323Z,99849.97
2023-09-24T22:10:43.649Z,99844.03
2023-09-24T22:13:45.920Z,99840.53
2023-09-24T22:16:48.898Z,99840.09
2023-09-24T22:19:51.151Z,99845.06
2023-09-24T22:22:53.372Z,99836.88
2023-09-24T22:25:59.783Z,99842.47
2023-09-24T22:29:03.835Z,99832.81
2023-09-24T22:32:06.115Z,99834.88
2023-09-24T22:35:13.171Z,99839.38
2023-09-24T22:38:15.366Z,99831.53
2023-09-24T22:41:17.613Z,99833.41
2023-09-24T22:44:19.889Z,99847.81
2023-09-24T22:47:22.289Z,99837.12
2023-09-24T22:50:24.907Z,99834.66
2023-09-24T22:53:27.262Z,99841.87
2023-09-24T22:56:29.524Z,99836.78
2023-09-24T22:59:31.709Z,99839.44
2023-09-24T23:02:33.930Z,99833.66
2023-09-24T23:05:40.925Z,99826.66
2023-09-24T23:08:43.223Z,99831.97
2023-09-24T23:11:45.937Z,99844.38
2023-09-24T23:14:48.166Z,99844.97
2023-09-24T23:17:52.167Z,99839.00
2023-09-24T23:20:54.463Z,99848.69
2023-09-24T23:23:56.745Z,99851.13
2023-09-24T23:26:58.929Z,99850.53
2023-09-24T23:30:01.197Z,99846.59
2023-09-24T23:33:03.709Z,99835.75
2023-09-24T23:36:06.087Z,99832.91
2023-09-24T23:39:13.653Z,99832.25
2023-09-24T23:42:16.059Z,99833.72
2023-09-24T23:45:18.828Z,99838.69
2023-09-24T23:48:21.108Z,99843.00
2023-09-24T23:51:23.334Z,99844.22
2023-09-24T23:54:25.789Z,99841.75
2023-09-24T23:57:28.223Z,99837.97
